sensor_id;sensor_type;location;lat;lon;timestamp;temperature;humidity
42037;DHT22;30340;52.004;5.908;2022-12-29T00:00:04;11.70;95.60
42037;DHT22;30340;52.004;5.908;2022-12-29T00:02:30;11.80;95.60
42037;DHT22;30340;52.004;5.908;2022-12-29T00:04:55;11.70;95.50
42037;DHT22;30340;52.004;5.908;2022-12-29T00:07:21;11.80;95.50
42037;DHT22;30340;52.004;5.908;2022-12-29T00:09:47;11.70;95.50
42037;DHT22;30340;52.004;5.908;2022-12-29T00:12:12;11.70;95.50
42037;DHT22;30340;52.004;5.908;2022-12-29T00:14:38;11.80;95.70
42037;DHT22;30340;52.004;5.908;2022-12-29T00:17:22;11.70;95.30
42037;DHT22;30340;52.004;5.908;2022-12-29T00:19:48;11.80;95.40
42037;DHT22;30340;52.004;5.908;2022-12-29T00:22:32;11.70;95.40
42037;DHT22;30340;52.004;5.908;2022-12-29T00:25:16;11.70;95.30
42037;DHT22;30340;52.004;5.908;2022-12-29T00:28:00;11.70;95.30
42037;DHT22;30340;52.004;5.908;2022-12-29T00:30:44;11.70;95.20
42037;DHT22;30340;52.004;5.908;2022-12-29T00:33:30;11.70;95.20
42037;DHT22;30340;52.004;5.908;2022-12-29T00:36:36;11.80;95.30
42037;DHT22;30340;52.004;5.908;2022-12-29T00:39:07;11.80;95.30
42037;DHT22;30340;52.004;5.908;2022-12-29T00:41:52;11.70;95.20
42037;DHT22;30340;52.004;5.908;2022-12-29T00:44:44;11.70;95.20
42037;DHT22;30340;52.004;5.908;2022-12-29T00:47:09;11.80;95.20
42037;DHT22;30340;52.004;5.908;2022-12-29T00:49:35;11.80;95.20
42037;DHT22;30340;52.004;5.908;2022-12-29T00:52:06;11.80;95.20
42037;DHT22;30340;52.004;5.908;2022-12-29T00:54:36;11.80;95.20
42037;DHT22;30340;52.004;5.908;2022-12-29T00:57:03;11.80;95.20
42037;DHT22;30340;52.004;5.908;2022-12-29T00:59:29;11.80;95.00
42037;DHT22;30340;52.004;5.908;2022-12-29T01:01:56;11.80;95.10
42037;DHT22;30340;52.004;5.908;2022-12-29T01:04:23;11.80;95.00
42037;DHT22;30340;52.004;5.908;2022-12-29T01:06:49;11.80;95.00
42037;DHT22;30340;52.004;5.908;2022-12-29T01:09:16;11.80;95.10
42037;DHT22;30340;52.004;5.908;2022-12-29T01:12:00;11.80;95.10
42037;DHT22;30340;52.004;5.908;2022-12-29T01:14:26;11.80;95.10
42037;DHT22;30340;52.004;5.908;2022-12-29T01:16:52;11.80;95.10
42037;DHT22;30340;52.004;5.908;2022-12-29T01:19:18;11.80;95.00
42037;DHT22;30340;52.004;5.908;2022-12-29T01:21:45;11.80;94.90
42037;DHT22;30340;52.004;5.908;2022-12-29T01:24:11;11.80;94.80
42037;DHT22;30340;52.004;5.908;2022-12-29T01:26:36;11.80;94.70
42037;DHT22;30340;52.004;5.908;2022-12-29T01:29:02;11.80;94.70
42037;DHT22;30340;52.004;5.908;2022-12-29T01:31:28;11.80;94.60
42037;DHT22;30340;52.004;5.908;2022-12-29T01:33:53;11.80;94.60
42037;DHT22;30340;52.004;5.908;2022-12-29T01:36:19;11.80;94.70
42037;DHT22;30340;52.004;5.908;2022-12-29T01:38:44;11.80;94.70
42037;DHT22;30340;52.004;5.908;2022-12-29T01:41:13;11.70;94.80
42037;DHT22;30340;52.004;5.908;2022-12-29T01:46:15;11.70;95.00
42037;DHT22;30340;52.004;5.908;2022-12-29T01:48:46;11.70;95.10
42037;DHT22;30340;52.004;5.908;2022-12-29T01:51:12;11.70;95.10
42037;DHT22;30340;52.004;5.908;2022-12-29T01:53:38;11.70;95.20
42037;DHT22;30340;52.004;5.908;2022-12-29T01:56:07;11.70;95.20
42037;DHT22;30340;52.004;5.908;2022-12-29T01:58:39;11.70;95.30
42037;DHT22;30340;52.004;5.908;2022-12-29T02:01:07;11.60;95.30
42037;DHT22;30340;52.004;5.908;2022-12-29T02:03:33;11.70;95.40
42037;DHT22;30340;52.004;5.908;2022-12-29T02:06:11;11.60;95.50
42037;DHT22;30340;52.004;5.908;2022-12-29T02:08:38;11.70;95.60
42037;DHT22;30340;52.004;5.908;2022-12-29T02:11:05;11.70;95.60
42037;DHT22;30340;52.004;5.908;2022-12-29T02:13:32;11.70;95.60
42037;DHT22;30340;52.004;5.908;2022-12-29T02:21:44;11.80;95.70
42037;DHT22;30340;52.004;5.908;2022-12-29T02:27:15;11.80;95.70
42037;DHT22;30340;52.004;5.908;2022-12-29T02:32:38;11.80;95.90
42037;DHT22;30340;52.004;5.908;2022-12-29T02:35:08;11.80;96.00
42037;DHT22;30340;52.004;5.908;2022-12-29T02:37:49;11.90;96.00
42037;DHT22;30340;52.004;5.908;2022-12-29T02:40:23;11.90;96.10
42037;DHT22;30340;52.004;5.908;2022-12-29T02:48:21;11.80;96.30
42037;DHT22;30340;52.004;5.908;2022-12-29T02:51:20;11.80;96.30
42037;DHT22;30340;52.004;5.908;2022-12-29T02:53:46;11.80;96.40
42037;DHT22;30340;52.004;5.908;2022-12-29T02:56:31;11.80;96.50
42037;DHT22;30340;52.004;5.908;2022-12-29T02:58:56;11.80;96.50
42037;DHT22;30340;52.004;5.908;2022-12-29T03:09:29;11.80;96.50
42037;DHT22;30340;52.004;5.908;2022-12-29T03:15:02;11.80;96.40
42037;DHT22;30340;52.004;5.908;2022-12-29T03:18:13;11.90;96.30
42037;DHT22;30340;52.004;5.908;2022-12-29T03:20:54;11.90;96.20
42037;DHT22;30340;52.004;5.908;2022-12-29T03:23:23;11.80;96.10
42037;DHT22;30340;52.004;5.908;2022-12-29T03:25:59;11.80;95.90
42037;DHT22;30340;52.004;5.908;2022-12-29T03:28:36;11.70;96.00
42037;DHT22;30340;52.004;5.908;2022-12-29T03:31:04;11.60;96.00
42037;DHT22;30340;52.004;5.908;2022-12-29T03:33:32;11.60;95.90
42037;DHT22;30340;52.004;5.908;2022-12-29T03:36:01;11.60;95.70
42037;DHT22;30340;52.004;5.908;2022-12-29T03:41:11;11.70;95.50
42037;DHT22;30340;52.004;5.908;2022-12-29T03:43:38;11.70;95.30
42037;DHT22;30340;52.004;5.908;2022-12-29T03:46:04;11.70;95.30
42037;DHT22;30340;52.004;5.908;2022-12-29T03:48:29;11.70;95.10
42037;DHT22;30340;52.004;5.908;2022-12-29T03:50:55;11.80;95.00
42037;DHT22;30340;52.004;5.908;2022-12-29T03:53:20;11.70;94.90
42037;DHT22;30340;52.004;5.908;2022-12-29T03:55:46;11.80;94.90
42037;DHT22;30340;52.004;5.908;2022-12-29T03:58:12;11.80;94.90
42037;DHT22;30340;52.004;5.908;2022-12-29T04:00:38;11.80;94.80
42037;DHT22;30340;52.004;5.908;2022-12-29T04:03:03;11.80;94.80
42037;DHT22;30340;52.004;5.908;2022-12-29T04:05:29;11.80;94.80
42037;DHT22;30340;52.004;5.908;2022-12-29T04:07:55;11.80;94.70
42037;DHT22;30340;52.004;5.908;2022-12-29T04:10:20;11.80;94.40
42037;DHT22;30340;52.004;5.908;2022-12-29T04:12:46;11.80;94.30
42037;DHT22;30340;52.004;5.908;2022-12-29T04:15:12;11.80;94.20
42037;DHT22;30340;52.004;5.908;2022-12-29T04:17:37;11.80;94.10
42037;DHT22;30340;52.004;5.908;2022-12-29T04:20:03;11.80;94.10
42037;DHT22;30340;52.004;5.908;2022-12-29T04:22:48;11.80;94.00
42037;DHT22;30340;52.004;5.908;2022-12-29T04:25:13;11.90;93.90
42037;DHT22;30340;52.004;5.908;2022-12-29T04:27:39;11.90;93.80
42037;DHT22;30340;52.004;5.908;2022-12-29T04:30:05;11.80;93.70
42037;DHT22;30340;52.004;5.908;2022-12-29T04:32:31;11.90;93.60
42037;DHT22;30340;52.004;5.908;2022-12-29T04:34:56;11.90;93.50
42037;DHT22;30340;52.004;5.908;2022-12-29T04:37:22;11.80;93.20
42037;DHT22;30340;52.004;5.908;2022-12-29T04:39:47;11.80;93.10
42037;DHT22;30340;52.004;5.908;2022-12-29T04:42:13;11.80;93.00
42037;DHT22;30340;52.004;5.908;2022-12-29T04:44:39;11.80;93.00
42037;DHT22;30340;52.004;5.908;2022-12-29T04:47:04;11.80;93.00
42037;DHT22;30340;52.004;5.908;2022-12-29T04:49:30;11.80;92.90
42037;DHT22;30340;52.004;5.908;2022-12-29T04:51:55;11.70;92.80
42037;DHT22;30340;52.004;5.908;2022-12-29T04:54:21;11.80;92.70
42037;DHT22;30340;52.004;5.908;2022-12-29T04:56:46;11.70;92.80
42037;DHT22;30340;52.004;5.908;2022-12-29T04:59:12;11.70;92.80
42037;DHT22;30340;52.004;5.908;2022-12-29T05:01:37;11.70;92.90
42037;DHT22;30340;52.004;5.908;2022-12-29T05:04:03;11.60;92.80
42037;DHT22;30340;52.004;5.908;2022-12-29T05:06:29;11.60;92.90
42037;DHT22;30340;52.004;5.908;2022-12-29T05:08:54;11.60;92.80
42037;DHT22;30340;52.004;5.908;2022-12-29T05:11:20;11.60;92.50
42037;DHT22;30340;52.004;5.908;2022-12-29T05:13:46;11.60;92.30
42037;DHT22;30340;52.004;5.908;2022-12-29T05:16:12;11.60;92.10
42037;DHT22;30340;52.004;5.908;2022-12-29T05:18:37;11.60;91.70
42037;DHT22;30340;52.004;5.908;2022-12-29T05:21:03;11.50;91.50
42037;DHT22;30340;52.004;5.908;2022-12-29T05:23:28;11.50;91.40
42037;DHT22;30340;52.004;5.908;2022-12-29T05:25:54;11.50;91.30
42037;DHT22;30340;52.004;5.908;2022-12-29T05:28:20;11.50;91.20
42037;DHT22;30340;52.004;5.908;2022-12-29T05:30:48;11.50;91.20
42037;DHT22;30340;52.004;5.908;2022-12-29T05:33:14;11.50;91.10
42037;DHT22;30340;52.004;5.908;2022-12-29T05:35:39;11.50;91.20
42037;DHT22;30340;52.004;5.908;2022-12-29T05:38:05;11.50;91.10
42037;DHT22;30340;52.004;5.908;2022-12-29T05:40:31;11.50;91.30
42037;DHT22;30340;52.004;5.908;2022-12-29T05:42:56;11.50;91.40
42037;DHT22;30340;52.004;5.908;2022-12-29T05:45:22;11.40;91.60
42037;DHT22;30340;52.004;5.908;2022-12-29T05:47:48;11.40;91.70
42037;DHT22;30340;52.004;5.908;2022-12-29T05:50:13;11.30;91.90
42037;DHT22;30340;52.004;5.908;2022-12-29T05:52:39;11.20;92.10
42037;DHT22;30340;52.004;5.908;2022-12-29T05:55:05;11.20;92.30
42037;DHT22;30340;52.004;5.908;2022-12-29T05:57:30;11.10;92.40
42037;DHT22;30340;52.004;5.908;2022-12-29T05:59:56;11.10;92.50
42037;DHT22;30340;52.004;5.908;2022-12-29T06:02:21;11.10;92.60
42037;DHT22;30340;52.004;5.908;2022-12-29T06:04:47;11.00;92.60
42037;DHT22;30340;52.004;5.908;2022-12-29T06:07:13;11.00;92.60
42037;DHT22;30340;52.004;5.908;2022-12-29T06:09:38;11.00;92.50
42037;DHT22;30340;52.004;5.908;2022-12-29T06:12:04;11.00;92.40
42037;DHT22;30340;52.004;5.908;2022-12-29T06:14:30;11.00;92.30
42037;DHT22;30340;52.004;5.908;2022-12-29T06:16:55;11.00;92.20
42037;DHT22;30340;52.004;5.908;2022-12-29T06:19:21;11.00;92.20
42037;DHT22;30340;52.004;5.908;2022-12-29T06:21:46;11.10;92.10
42037;DHT22;30340;52.004;5.908;2022-12-29T06:24:12;11.00;91.90
42037;DHT22;30340;52.004;5.908;2022-12-29T06:26:37;11.00;91.80
42037;DHT22;30340;52.004;5.908;2022-12-29T06:29:03;11.00;91.70
42037;DHT22;30340;52.004;5.908;2022-12-29T06:31:29;11.00;91.60
42037;DHT22;30340;52.004;5.908;2022-12-29T06:33:54;11.00;91.50
42037;DHT22;30340;52.004;5.908;2022-12-29T06:36:20;11.00;91.50
42037;DHT22;30340;52.004;5.908;2022-12-29T06:38:45;11.00;91.20
42037;DHT22;30340;52.004;5.908;2022-12-29T06:41:11;11.00;91.10
42037;DHT22;30340;52.004;5.908;2022-12-29T06:43:36;11.00;91.00
42037;DHT22;30340;52.004;5.908;2022-12-29T06:46:04;11.00;90.80
42037;DHT22;30340;52.004;5.908;2022-12-29T06:48:30;11.00;90.70
42037;DHT22;30340;52.004;5.908;2022-12-29T06:50:55;11.00;90.70
42037;DHT22;30340;52.004;5.908;2022-12-29T06:53:21;11.00;90.60
42037;DHT22;30340;52.004;5.908;2022-12-29T06:55:46;11.10;90.50
42037;DHT22;30340;52.004;5.908;2022-12-29T06:58:12;11.00;90.20
42037;DHT22;30340;52.004;5.908;2022-12-29T07:00:37;11.00;90.10
42037;DHT22;30340;52.004;5.908;2022-12-29T07:03:03;11.00;90.00
42037;DHT22;30340;52.004;5.908;2022-12-29T07:05:28;11.10;90.00
42037;DHT22;30340;52.004;5.908;2022-12-29T07:07:56;11.10;89.90
42037;DHT22;30340;52.004;5.908;2022-12-29T07:10:22;11.10;89.60
42037;DHT22;30340;52.004;5.908;2022-12-29T07:12:48;11.10;89.00
42037;DHT22;30340;52.004;5.908;2022-12-29T07:15:14;11.10;88.70
42037;DHT22;30340;52.004;5.908;2022-12-29T07:17:39;11.20;88.70
42037;DHT22;30340;52.004;5.908;2022-12-29T07:20:05;11.20;88.60
42037;DHT22;30340;52.004;5.908;2022-12-29T07:22:31;11.20;88.50
42037;DHT22;30340;52.004;5.908;2022-12-29T07:24:57;11.20;88.30
42037;DHT22;30340;52.004;5.908;2022-12-29T07:27:22;11.20;88.30
42037;DHT22;30340;52.004;5.908;2022-12-29T07:29:48;11.20;87.90
42037;DHT22;30340;52.004;5.908;2022-12-29T07:32:14;11.20;87.80
42037;DHT22;30340;52.004;5.908;2022-12-29T07:34:39;11.20;87.60
42037;DHT22;30340;52.004;5.908;2022-12-29T07:37:05;11.20;87.70
42037;DHT22;30340;52.004;5.908;2022-12-29T07:39:31;11.20;87.40
42037;DHT22;30340;52.004;5.908;2022-12-29T07:41:57;11.20;87.40
42037;DHT22;30340;52.004;5.908;2022-12-29T07:44:22;11.20;86.90
42037;DHT22;30340;52.004;5.908;2022-12-29T07:46:48;11.20;87.10
42037;DHT22;30340;52.004;5.908;2022-12-29T07:49:13;11.20;87.10
42037;DHT22;30340;52.004;5.908;2022-12-29T07:51:39;11.20;86.90
42037;DHT22;30340;52.004;5.908;2022-12-29T07:54:04;11.20;86.70
42037;DHT22;30340;52.004;5.908;2022-12-29T07:56:30;11.20;86.20
42037;DHT22;30340;52.004;5.908;2022-12-29T07:58:55;11.30;86.20
42037;DHT22;30340;52.004;5.908;2022-12-29T08:01:21;11.20;86.20
42037;DHT22;30340;52.004;5.908;2022-12-29T08:03:48;11.20;85.90
42037;DHT22;30340;52.004;5.908;2022-12-29T08:06:15;11.30;86.00
42037;DHT22;30340;52.004;5.908;2022-12-29T08:08:40;11.30;85.80
42037;DHT22;30340;52.004;5.908;2022-12-29T08:11:06;11.30;85.40
42037;DHT22;30340;52.004;5.908;2022-12-29T08:13:32;11.30;85.50
42037;DHT22;30340;52.004;5.908;2022-12-29T08:15:58;11.30;85.20
42037;DHT22;30340;52.004;5.908;2022-12-29T08:18:24;11.30;85.20
42037;DHT22;30340;52.004;5.908;2022-12-29T08:20:49;11.30;85.30
42037;DHT22;30340;52.004;5.908;2022-12-29T08:23:15;11.20;85.20
42037;DHT22;30340;52.004;5.908;2022-12-29T08:25:41;11.20;85.20
42037;DHT22;30340;52.004;5.908;2022-12-29T08:28:07;11.30;84.80
42037;DHT22;30340;52.004;5.908;2022-12-29T08:30:32;11.30;84.10
42037;DHT22;30340;52.004;5.908;2022-12-29T08:32:58;11.30;83.70
42037;DHT22;30340;52.004;5.908;2022-12-29T08:35:23;11.30;83.20
42037;DHT22;30340;52.004;5.908;2022-12-29T08:37:49;11.30;83.30
42037;DHT22;30340;52.004;5.908;2022-12-29T08:40:14;11.40;83.30
42037;DHT22;30340;52.004;5.908;2022-12-29T08:42:40;11.40;83.00
42037;DHT22;30340;52.004;5.908;2022-12-29T08:45:07;11.40;83.00
42037;DHT22;30340;52.004;5.908;2022-12-29T08:47:33;11.40;82.60
42037;DHT22;30340;52.004;5.908;2022-12-29T08:49:59;11.40;81.90
42037;DHT22;30340;52.004;5.908;2022-12-29T08:52:25;11.40;82.00
42037;DHT22;30340;52.004;5.908;2022-12-29T08:54:50;11.50;82.30
42037;DHT22;30340;52.004;5.908;2022-12-29T08:57:16;11.40;81.80
42037;DHT22;30340;52.004;5.908;2022-12-29T08:59:41;11.40;81.80
42037;DHT22;30340;52.004;5.908;2022-12-29T09:02:11;11.40;81.70
42037;DHT22;30340;52.004;5.908;2022-12-29T09:04:37;11.50;81.90
42037;DHT22;30340;52.004;5.908;2022-12-29T09:07:03;11.50;81.90
42037;DHT22;30340;52.004;5.908;2022-12-29T09:09:28;11.50;82.10
42037;DHT22;30340;52.004;5.908;2022-12-29T09:11:54;11.50;82.20
42037;DHT22;30340;52.004;5.908;2022-12-29T09:14:20;11.50;81.90
42037;DHT22;30340;52.004;5.908;2022-12-29T09:16:46;11.40;81.80
42037;DHT22;30340;52.004;5.908;2022-12-29T09:19:30;11.40;82.10
42037;DHT22;30340;52.004;5.908;2022-12-29T09:21:56;11.40;82.60
42037;DHT22;30340;52.004;5.908;2022-12-29T09:24:22;11.40;82.90
42037;DHT22;30340;52.004;5.908;2022-12-29T09:26:47;11.40;83.20
42037;DHT22;30340;52.004;5.908;2022-12-29T09:29:13;11.30;83.40
42037;DHT22;30340;52.004;5.908;2022-12-29T09:31:38;11.30;83.40
42037;DHT22;30340;52.004;5.908;2022-12-29T09:34:04;11.30;83.60
42037;DHT22;30340;52.004;5.908;2022-12-29T09:36:29;11.30;83.70
42037;DHT22;30340;52.004;5.908;2022-12-29T09:38:55;11.30;83.80
42037;DHT22;30340;52.004;5.908;2022-12-29T09:41:26;11.30;83.70
42037;DHT22;30340;52.004;5.908;2022-12-29T09:46:49;11.30;83.60
42037;DHT22;30340;52.004;5.908;2022-12-29T09:49:29;11.30;83.80
42037;DHT22;30340;52.004;5.908;2022-12-29T09:52:06;11.30;84.10
42037;DHT22;30340;52.004;5.908;2022-12-29T09:54:58;11.20;84.10
42037;DHT22;30340;52.004;5.908;2022-12-29T09:58:05;11.20;84.50
42037;DHT22;30340;52.004;5.908;2022-12-29T10:00:52;11.20;84.90
42037;DHT22;30340;52.004;5.908;2022-12-29T10:03:20;11.10;85.20
42037;DHT22;30340;52.004;5.908;2022-12-29T10:10:55;11.00;86.20
42037;DHT22;30340;52.004;5.908;2022-12-29T10:16:04;11.00;87.50
42037;DHT22;30340;52.004;5.908;2022-12-29T10:24:04;10.90;89.00
42037;DHT22;30340;52.004;5.908;2022-12-29T10:26:37;10.80;89.50
42037;DHT22;30340;52.004;5.908;2022-12-29T10:29:08;10.70;90.00
42037;DHT22;30340;52.004;5.908;2022-12-29T10:32:00;10.70;90.30
42037;DHT22;30340;52.004;5.908;2022-12-29T10:34:37;10.70;90.60
42037;DHT22;30340;52.004;5.908;2022-12-29T10:39:41;10.60;91.10
42037;DHT22;30340;52.004;5.908;2022-12-29T10:42:19;10.60;91.20
42037;DHT22;30340;52.004;5.908;2022-12-29T10:44:47;10.60;91.40
42037;DHT22;30340;52.004;5.908;2022-12-29T10:47:17;10.60;91.60
42037;DHT22;30340;52.004;5.908;2022-12-29T10:49:45;10.60;91.80
42037;DHT22;30340;52.004;5.908;2022-12-29T10:52:14;10.60;91.90
42037;DHT22;30340;52.004;5.908;2022-12-29T10:57:24;10.50;92.30
42037;DHT22;30340;52.004;5.908;2022-12-29T10:59:51;10.50;92.40
42037;DHT22;30340;52.004;5.908;2022-12-29T11:02:26;10.50;92.60
42037;DHT22;30340;52.004;5.908;2022-12-29T11:07:50;10.50;93.00
42037;DHT22;30340;52.004;5.908;2022-12-29T11:10:36;10.50;93.00
42037;DHT22;30340;52.004;5.908;2022-12-29T11:13:14;10.50;93.10
42037;DHT22;30340;52.004;5.908;2022-12-29T11:15:42;10.50;93.20
42037;DHT22;30340;52.004;5.908;2022-12-29T11:18:24;10.50;93.20
42037;DHT22;30340;52.004;5.908;2022-12-29T11:20:53;10.50;93.30
42037;DHT22;30340;52.004;5.908;2022-12-29T11:28:35;10.60;93.20
42037;DHT22;30340;52.004;5.908;2022-12-29T11:31:03;10.60;93.20
42037;DHT22;30340;52.004;5.908;2022-12-29T11:33:30;10.60;93.10
42037;DHT22;30340;52.004;5.908;2022-12-29T11:36:01;10.60;93.10
42037;DHT22;30340;52.004;5.908;2022-12-29T11:38:35;10.60;93.10
42037;DHT22;30340;52.004;5.908;2022-12-29T11:41:02;10.60;93.10
42037;DHT22;30340;52.004;5.908;2022-12-29T11:43:38;10.70;93.20
42037;DHT22;30340;52.004;5.908;2022-12-29T11:46:05;10.70;93.20
42037;DHT22;30340;52.004;5.908;2022-12-29T11:48:38;10.70;93.10
42037;DHT22;30340;52.004;5.908;2022-12-29T11:51:04;10.70;93.10
42037;DHT22;30340;52.004;5.908;2022-12-29T11:53:33;10.70;93.10
42037;DHT22;30340;52.004;5.908;2022-12-29T11:56:12;10.80;93.10
42037;DHT22;30340;52.004;5.908;2022-12-29T11:58:38;10.80;93.00
42037;DHT22;30340;52.004;5.908;2022-12-29T12:04:01;10.90;93.00
42037;DHT22;30340;52.004;5.908;2022-12-29T12:06:29;10.90;92.80
42037;DHT22;30340;52.004;5.908;2022-12-29T12:09:01;10.90;92.80
42037;DHT22;30340;52.004;5.908;2022-12-29T12:11:37;10.90;92.70
42037;DHT22;30340;52.004;5.908;2022-12-29T12:14:17;10.90;92.60
42037;DHT22;30340;52.004;5.908;2022-12-29T12:16:52;10.90;92.60
42037;DHT22;30340;52.004;5.908;2022-12-29T12:19:53;10.90;92.50
42037;DHT22;30340;52.004;5.908;2022-12-29T12:24:56;11.10;92.00
42037;DHT22;30340;52.004;5.908;2022-12-29T12:27:30;11.10;91.80
42037;DHT22;30340;52.004;5.908;2022-12-29T12:30:01;11.10;91.70
42037;DHT22;30340;52.004;5.908;2022-12-29T12:41:25;11.10;91.10
42037;DHT22;30340;52.004;5.908;2022-12-29T12:44:03;11.10;91.10
42037;DHT22;30340;52.004;5.908;2022-12-29T13:00:22;11.60;88.70
42037;DHT22;30340;52.004;5.908;2022-12-29T13:03:11;11.50;88.90
42037;DHT22;30340;52.004;5.908;2022-12-29T13:05:54;11.50;89.30
42037;DHT22;30340;52.004;5.908;2022-12-29T13:11:29;11.40;89.10
42037;DHT22;30340;52.004;5.908;2022-12-29T13:14:05;11.40;89.00
42037;DHT22;30340;52.004;5.908;2022-12-29T13:17:02;11.40;89.00
42037;DHT22;30340;52.004;5.908;2022-12-29T13:19:59;11.40;88.90
42037;DHT22;30340;52.004;5.908;2022-12-29T13:28:47;11.20;89.20
42037;DHT22;30340;52.004;5.908;2022-12-29T13:39:04;11.20;89.60
42037;DHT22;30340;52.004;5.908;2022-12-29T13:41:50;11.10;89.40
42037;DHT22;30340;52.004;5.908;2022-12-29T13:44:20;11.10;89.60
42037;DHT22;30340;52.004;5.908;2022-12-29T13:46:48;11.10;89.60
42037;DHT22;30340;52.004;5.908;2022-12-29T13:49:19;11.10;89.80
42037;DHT22;30340;52.004;5.908;2022-12-29T13:52:02;11.10;89.70
42037;DHT22;30340;52.004;5.908;2022-12-29T13:54:53;11.10;89.50
42037;DHT22;30340;52.004;5.908;2022-12-29T13:57:47;11.10;89.40
42037;DHT22;30340;52.004;5.908;2022-12-29T14:00:16;11.10;89.30
42037;DHT22;30340;52.004;5.908;2022-12-29T14:02:50;11.10;89.40
42037;DHT22;30340;52.004;5.908;2022-12-29T14:07:56;11.10;89.20
42037;DHT22;30340;52.004;5.908;2022-12-29T14:10:47;11.20;89.20
42037;DHT22;30340;52.004;5.908;2022-12-29T14:13:16;11.20;89.10
42037;DHT22;30340;52.004;5.908;2022-12-29T14:15:45;11.20;88.90
42037;DHT22;30340;52.004;5.908;2022-12-29T14:18:14;11.20;88.60
42037;DHT22;30340;52.004;5.908;2022-12-29T14:23:43;11.10;88.80
42037;DHT22;30340;52.004;5.908;2022-12-29T14:26:35;11.00;88.30
42037;DHT22;30340;52.004;5.908;2022-12-29T14:32:36;10.90;87.20
42037;DHT22;30340;52.004;5.908;2022-12-29T14:35:38;10.80;86.80
42037;DHT22;30340;52.004;5.908;2022-12-29T14:38:17;10.80;86.90
42037;DHT22;30340;52.004;5.908;2022-12-29T14:40:43;10.80;86.90
42037;DHT22;30340;52.004;5.908;2022-12-29T14:43:18;10.70;87.10
42037;DHT22;30340;52.004;5.908;2022-12-29T14:45:53;10.60;87.50
42037;DHT22;30340;52.004;5.908;2022-12-29T14:48:32;10.60;88.00
42037;DHT22;30340;52.004;5.908;2022-12-29T14:50:58;10.60;88.50
42037;DHT22;30340;52.004;5.908;2022-12-29T14:53:48;10.50;89.10
42037;DHT22;30340;52.004;5.908;2022-12-29T14:56:17;10.50;89.80
42037;DHT22;30340;52.004;5.908;2022-12-29T15:01:19;10.40;90.20
42037;DHT22;30340;52.004;5.908;2022-12-29T15:03:47;10.40;90.30
42037;DHT22;30340;52.004;5.908;2022-12-29T15:06:16;10.40;90.40
42037;DHT22;30340;52.004;5.908;2022-12-29T15:08:51;10.40;90.50
42037;DHT22;30340;52.004;5.908;2022-12-29T15:11:21;10.40;90.70
42037;DHT22;30340;52.004;5.908;2022-12-29T15:13:48;10.40;90.80
42037;DHT22;30340;52.004;5.908;2022-12-29T15:16:23;10.40;90.90
42037;DHT22;30340;52.004;5.908;2022-12-29T15:18:49;10.40;90.90
42037;DHT22;30340;52.004;5.908;2022-12-29T15:21:16;10.40;91.00
42037;DHT22;30340;52.004;5.908;2022-12-29T15:23:45;10.30;91.10
42037;DHT22;30340;52.004;5.908;2022-12-29T15:26:11;10.30;91.30
42037;DHT22;30340;52.004;5.908;2022-12-29T15:28:45;10.30;91.40
42037;DHT22;30340;52.004;5.908;2022-12-29T15:31:13;10.30;91.50
42037;DHT22;30340;52.004;5.908;2022-12-29T15:33:41;10.30;91.70
42037;DHT22;30340;52.004;5.908;2022-12-29T15:36:12;10.20;91.90
42037;DHT22;30340;52.004;5.908;2022-12-29T15:38:39;10.20;92.10
42037;DHT22;30340;52.004;5.908;2022-12-29T15:41:10;10.20;92.10
42037;DHT22;30340;52.004;5.908;2022-12-29T15:46:30;10.20;92.50
42037;DHT22;30340;52.004;5.908;2022-12-29T15:48:56;10.20;92.20
42037;DHT22;30340;52.004;5.908;2022-12-29T15:51:30;10.30;92.20
42037;DHT22;30340;52.004;5.908;2022-12-29T15:53:58;10.30;92.20
42037;DHT22;30340;52.004;5.908;2022-12-29T15:56:28;10.30;92.20
42037;DHT22;30340;52.004;5.908;2022-12-29T15:58:53;10.30;92.10
42037;DHT22;30340;52.004;5.908;2022-12-29T16:01:33;10.30;92.10
42037;DHT22;30340;52.004;5.908;2022-12-29T16:04:01;10.30;92.00
42037;DHT22;30340;52.004;5.908;2022-12-29T16:06:31;10.30;91.90
42037;DHT22;30340;52.004;5.908;2022-12-29T16:09:14;10.30;91.80
42037;DHT22;30340;52.004;5.908;2022-12-29T16:11:53;10.30;91.80
42037;DHT22;30340;52.004;5.908;2022-12-29T16:14:43;10.30;91.70
42037;DHT22;30340;52.004;5.908;2022-12-29T16:17:15;10.30;91.60
42037;DHT22;30340;52.004;5.908;2022-12-29T16:19:50;10.30;91.60
42037;DHT22;30340;52.004;5.908;2022-12-29T16:22:30;10.20;91.50
42037;DHT22;30340;52.004;5.908;2022-12-29T16:25:04;10.20;91.50
42037;DHT22;30340;52.004;5.908;2022-12-29T16:27:36;10.20;91.50
42037;DHT22;30340;52.004;5.908;2022-12-29T16:30:24;10.20;91.50
42037;DHT22;30340;52.004;5.908;2022-12-29T16:32:53;10.30;91.40
42037;DHT22;30340;52.004;5.908;2022-12-29T16:35:24;10.30;91.30
42037;DHT22;30340;52.004;5.908;2022-12-29T16:38:14;10.30;91.30
42037;DHT22;30340;52.004;5.908;2022-12-29T16:41:01;10.20;91.30
42037;DHT22;30340;52.004;5.908;2022-12-29T16:43:33;10.20;91.30
42037;DHT22;30340;52.004;5.908;2022-12-29T16:51:13;10.20;91.30
42037;DHT22;30340;52.004;5.908;2022-12-29T16:53:41;10.10;91.20
42037;DHT22;30340;52.004;5.908;2022-12-29T16:56:17;10.00;91.20
42037;DHT22;30340;52.004;5.908;2022-12-29T16:59:23;10.00;91.20
42037;DHT22;30340;52.004;5.908;2022-12-29T17:01:50;10.00;91.20
42037;DHT22;30340;52.004;5.908;2022-12-29T17:04:16;10.00;91.20
42037;DHT22;30340;52.004;5.908;2022-12-29T17:06:42;10.00;91.30
42037;DHT22;30340;52.004;5.908;2022-12-29T17:09:25;10.00;91.20
42037;DHT22;30340;52.004;5.908;2022-12-29T17:11:53;10.00;91.10
42037;DHT22;30340;52.004;5.908;2022-12-29T17:17:31;10.00;90.90
42037;DHT22;30340;52.004;5.908;2022-12-29T17:20:02;9.90;90.90
42037;DHT22;30340;52.004;5.908;2022-12-29T17:22:28;9.90;90.80
42037;DHT22;30340;52.004;5.908;2022-12-29T17:24:56;9.80;90.50
42037;DHT22;30340;52.004;5.908;2022-12-29T17:27:29;9.80;90.50
42037;DHT22;30340;52.004;5.908;2022-12-29T17:30:02;9.80;90.40
42037;DHT22;30340;52.004;5.908;2022-12-29T17:32:29;9.80;90.40
42037;DHT22;30340;52.004;5.908;2022-12-29T17:34:55;9.80;90.30
42037;DHT22;30340;52.004;5.908;2022-12-29T17:39:49;9.70;90.10
42037;DHT22;30340;52.004;5.908;2022-12-29T17:42:16;9.70;90.00
42037;DHT22;30340;52.004;5.908;2022-12-29T17:44:42;9.70;90.00
42037;DHT22;30340;52.004;5.908;2022-12-29T17:47:10;9.60;89.80
42037;DHT22;30340;52.004;5.908;2022-12-29T17:49:36;9.60;89.40
42037;DHT22;30340;52.004;5.908;2022-12-29T17:52:02;9.60;89.50
42037;DHT22;30340;52.004;5.908;2022-12-29T17:54:29;9.60;89.30
42037;DHT22;30340;52.004;5.908;2022-12-29T17:56:54;9.50;89.20
42037;DHT22;30340;52.004;5.908;2022-12-29T17:59:20;9.50;89.10
42037;DHT22;30340;52.004;5.908;2022-12-29T18:01:47;9.50;89.20
42037;DHT22;30340;52.004;5.908;2022-12-29T18:04:15;9.50;89.20